createdAt,value
2023-03-18T00:03:37.488Z,68.91
2023-03-18T00:08:40.160Z,69.13
2023-03-18T00:13:49.903Z,68.91
2023-03-18T00:18:53.188Z,68.96
2023-03-18T00:23:57.035Z,69.41
2023-03-18T00:28:59.245Z,69.91
2023-03-18T00:34:01.426Z,70.39
2023-03-18T00:39:03.832Z,70.82
2023-03-18T00:44:06.321Z,71.50
2023-03-18T00:49:11.052Z,71.65
2023-03-18T00:54:19.718Z,72.00
2023-03-18T00:59:24.061Z,72.15
2023-03-18T01:04:25.948Z,72.69
2023-03-18T01:09:27.698Z,72.79
2023-03-18T01:14:30.007Z,73.40
2023-03-18T01:19:31.934Z,74.44
2023-03-18T01:24:34.042Z,74.88
2023-03-18T01:29:36.307Z,75.13
2023-03-18T01:34:41.602Z,74.50
2023-03-18T01:39:43.679Z,73.93
2023-03-18T01:45:10.094Z,73.78
2023-03-18T01:50:14.977Z,73.58
2023-03-18T01:55:19.375Z,73.56
2023-03-18T02:00:21.826Z,73.87
2023-03-18T02:10:27.626Z,73.67
2023-03-18T02:15:33.115Z,73.72
2023-03-18T02:20:40.708Z,74.26
2023-03-18T02:26:01.991Z,74.60
2023-03-18T02:31:05.792Z,75.09
2023-03-18T02:36:17.880Z,75.30
2023-03-18T02:41:24.716Z,75.59
2023-03-18T02:46:27.132Z,76.04
2023-03-18T02:51:29.898Z,77.22
2023-03-18T02:56:32.064Z,78.80
2023-03-18T03:01:35.266Z,80.18
2023-03-18T03:06:37.437Z,80.82
2023-03-18T03:11:40.904Z,81.08
2023-03-18T03:16:48.620Z,80.74
2023-03-18T03:21:52.462Z,80.57
2023-03-18T03:26:54.303Z,79.89
2023-03-18T03:31:56.492Z,79.95
2023-03-18T03:36:58.994Z,79.92
2023-03-18T03:42:00.936Z,80.17
2023-03-18T03:47:02.708Z,80.56
2023-03-18T03:52:05.138Z,81.19
2023-03-18T03:57:09.100Z,81.38
2023-03-18T04:02:10.888Z,81.20
2023-03-18T04:07:14.395Z,80.92
2023-03-18T04:12:18.375Z,81.74
2023-03-18T04:17:24.680Z,81.77
2023-03-18T04:22:26.632Z,81.57
2023-03-18T04:27:29.099Z,81.52
2023-03-18T04:32:32.142Z,82.10
2023-03-18T04:37:37.335Z,82.02
2023-03-18T04:42:40.086Z,82.56
2023-03-18T04:47:44.432Z,82.93
2023-03-18T04:52:47.151Z,82.54
2023-03-18T04:57:51.641Z,82.38
2023-03-18T05:06:30.244Z,83.41
2023-03-18T05:11:35.086Z,83.98
2023-03-18T05:16:45.620Z,82.83
2023-03-18T05:21:48.039Z,82.72
2023-03-18T05:26:51.186Z,82.90
2023-03-18T05:31:54.554Z,83.63
2023-03-18T05:36:57.713Z,83.27
2023-03-18T05:42:02.265Z,82.74
2023-03-18T05:47:04.643Z,83.27
2023-03-18T05:52:32.693Z,83.31
2023-03-18T05:57:38.977Z,83.03
2023-03-18T06:02:42.896Z,82.59
2023-03-18T06:07:45.729Z,81.74
2023-03-18T06:12:47.843Z,81.10
2023-03-18T06:17:52.777Z,80.37
2023-03-18T06:22:54.818Z,79.83
2023-03-18T06:27:58.909Z,79.35
2023-03-18T06:33:03.534Z,78.63
2023-03-18T06:38:06.608Z,77.97
2023-03-18T06:43:09.245Z,76.90
2023-03-18T06:48:13.511Z,76.67
2023-03-18T06:53:18.115Z,75.94
2023-03-18T06:58:21.372Z,75.18
2023-03-18T07:03:32.919Z,72.79
2023-03-18T07:08:36.002Z,70.60
2023-03-18T07:13:37.914Z,67.59
2023-03-18T07:18:42.825Z,66.30
2023-03-18T07:23:46.313Z,64.51
2023-03-18T07:28:48.287Z,60.41
2023-03-18T07:33:50.068Z,57.03
2023-03-18T07:38:51.882Z,54.36
2023-03-18T07:43:53.751Z,50.79
2023-03-18T07:48:55.467Z,49.48
2023-03-18T07:53:57.483Z,48.26
2023-03-18T07:58:59.539Z,46.32
2023-03-18T08:04:01.280Z,45.48
2023-03-18T08:09:03.835Z,44.04
2023-03-18T08:14:05.808Z,43.91
2023-03-18T08:19:07.556Z,43.96
2023-03-18T08:24:09.661Z,42.16
2023-03-18T08:29:11.369Z,40.66
2023-03-18T08:34:14.101Z,40.08
2023-03-18T08:39:15.991Z,38.81
2023-03-18T08:44:18.115Z,37.40
2023-03-18T08:49:19.961Z,36.92
2023-03-18T08:54:21.781Z,35.87
2023-03-18T08:59:23.680Z,34.04
2023-03-18T09:04:26.014Z,34.24
2023-03-18T09:09:37.371Z,34.18
2023-03-18T09:14:44.971Z,33.32
2023-03-18T09:19:46.705Z,32.25
2023-03-18T09:24:48.444Z,32.84
2023-03-18T09:29:50.656Z,32.65
2023-03-18T09:34:53.717Z,31.74
2023-03-18T09:39:56.133Z,32.46
2023-03-18T09:45:06.490Z,32.25
2023-03-18T09:50:36.872Z,30.76
2023-03-18T09:55:50.692Z,29.64
2023-03-18T10:01:00.230Z,29.64
2023-03-18T10:06:11.189Z,28.98
2023-03-18T10:11:19.622Z,29.46
2023-03-18T10:16:27.095Z,28.23
2023-03-18T10:21:48.520Z,28.70
2023-03-18T10:27:24.707Z,28.91
2023-03-18T10:33:02.873Z,28.66
2023-03-18T10:38:18.010Z,29.17
2023-03-18T10:43:25.235Z,26.20
2023-03-18T10:48:32.419Z,26.57
2023-03-18T10:53:45.459Z,25.93
2023-03-18T10:58:47.697Z,25.98
2023-03-18T11:03:54.757Z,26.12
2023-03-18T11:09:08.552Z,25.43
2023-03-18T11:14:28.931Z,24.96
2023-03-18T11:19:41.280Z,25.19
2023-03-18T11:24:43.996Z,25.77
2023-03-18T11:29:55.304Z,25.08
2023-03-18T11:34:58.924Z,24.59
2023-03-18T11:40:23.725Z,24.41
2023-03-18T11:45:44.368Z,24.30
2023-03-18T11:50:53.922Z,24.89
2023-03-18T11:56:06.584Z,23.82
2023-03-18T12:01:32.786Z,23.81
2023-03-18T12:07:05.650Z,24.34
2023-03-18T12:12:21.309Z,23.80
2023-03-18T12:17:35.963Z,23.48
2023-03-18T12:23:01.070Z,23.42
2023-03-18T12:28:30.646Z,23.18
2023-03-18T12:33:56.522Z,22.36
2023-03-18T12:39:24.348Z,22.74
2023-03-18T12:44:45.144Z,23.08
2023-03-18T12:49:52.742Z,22.72
2023-03-18T12:55:17.907Z,22.77
2023-03-18T13:00:28.379Z,22.58
2023-03-18T13:05:47.070Z,23.29
2023-03-18T13:10:57.682Z,22.87
2023-03-18T13:16:01.402Z,22.67
2023-03-18T13:21:05.617Z,21.55
2023-03-18T13:26:14.001Z,21.53
2023-03-18T13:31:24.752Z,21.89
2023-03-18T13:36:38.143Z,21.53
2023-03-18T13:42:18.545Z,20.29
2023-03-18T13:47:22.569Z,20.27
2023-03-18T13:52:33.571Z,20.55
2023-03-18T13:57:47.057Z,19.64
2023-03-18T14:03:05.803Z,20.16
2023-03-18T14:08:38.689Z,20.27
2023-03-18T14:13:40.841Z,21.23
2023-03-18T14:18:43.216Z,21.78
2023-03-18T14:23:45.264Z,21.49
2023-03-18T14:28:55.178Z,21.04
2023-03-18T14:34:17.868Z,20.90
2023-03-18T14:39:30.745Z,20.45
2023-03-18T14:44:50.413Z,20.17
2023-03-18T14:50:01.291Z,20.47
2023-03-18T14:55:15.458Z,20.34
2023-03-18T15:00:19.130Z,21.08
2023-03-18T15:05:22.850Z,21.06
2023-03-18T15:10:29.405Z,22.18
2023-03-18T15:15:32.123Z,22.11
2023-03-18T15:20:36.396Z,22.66
2023-03-18T15:25:41.327Z,23.01
2023-03-18T15:30:52.449Z,22.90
2023-03-18T15:36:04.367Z,23.70
2023-03-18T15:41:09.525Z,23.27
2023-03-18T15:46:15.898Z,23.87
2023-03-18T15:51:30.865Z,24.91
2023-03-18T15:56:35.997Z,25.55
2023-03-18T16:01:37.839Z,25.72
2023-03-18T16:06:40.396Z,27.19
2023-03-18T16:11:43.586Z,27.36
2023-03-18T16:16:45.933Z,27.83
2023-03-18T16:21:47.637Z,28.12
2023-03-18T16:26:51.729Z,28.58
2023-03-18T16:31:53.478Z,28.55
2023-03-18T16:36:56.139Z,28.83
2023-03-18T16:41:57.829Z,29.36
2023-03-18T16:46:59.792Z,30.07
2023-03-18T16:52:04.211Z,30.18
2023-03-18T16:57:10.442Z,31.05
2023-03-18T17:02:33.718Z,31.36
2023-03-18T17:07:37.050Z,31.55
2023-03-18T17:12:40.239Z,31.82
2023-03-18T17:17:42.980Z,31.86
2023-03-18T17:22:45.280Z,32.48
2023-03-18T17:27:50.805Z,32.90
2023-03-18T17:32:52.616Z,32.90
2023-03-18T17:37:54.884Z,33.32
2023-03-18T17:42:56.616Z,33.92
2023-03-18T17:48:15.600Z,33.92
2023-03-18T17:53:27.012Z,33.90
2023-03-18T17:58:29.985Z,33.86
2023-03-18T18:03:33.117Z,34.74
2023-03-18T18:08:36.142Z,34.80
2023-03-18T18:13:38.015Z,35.51
2023-03-18T18:18:41.656Z,36.40
2023-03-18T18:23:48.680Z,36.37
2023-03-18T18:28:52.790Z,37.45
2023-03-18T18:33:55.931Z,38.85
2023-03-18T18:38:57.671Z,40.72
2023-03-18T18:43:59.972Z,43.19
2023-03-18T18:49:01.835Z,43.72
2023-03-18T18:54:03.778Z,43.95
2023-03-18T18:59:18.389Z,43.96
2023-03-18T19:04:21.943Z,41.62
2023-03-18T19:09:25.952Z,40.42
2023-03-18T19:14:29.414Z,40.52
2023-03-18T19:19:34.879Z,40.50
2023-03-18T19:24:37.175Z,40.80
2023-03-18T19:29:38.935Z,41.57
2023-03-18T19:34:40.608Z,43.10
2023-03-18T19:39:42.947Z,44.02
2023-03-18T19:44:46.414Z,44.22
2023-03-18T19:49:48.739Z,45.11
2023-03-18T19:54:53.098Z,45.81
2023-03-18T19:59:59.225Z,45.96
2023-03-18T20:05:17.005Z,45.37
2023-03-18T20:10:20.022Z,45.16
2023-03-18T20:15:26.983Z,44.89
2023-03-18T20:20:31.454Z,44.99
2023-03-18T20:25:36.895Z,45.13
2023-03-18T20:30:40.319Z,45.42
2023-03-18T20:35:45.579Z,45.44
2023-03-18T20:40:50.039Z,45.60
2023-03-18T20:45:52.523Z,45.79
2023-03-18T20:50:55.356Z,46.20
2023-03-18T20:55:58.486Z,46.45
2023-03-18T21:01:00.331Z,46.66
2023-03-18T21:06:06.669Z,47.08
2023-03-18T21:11:27.608Z,46.94
2023-03-18T21:16:29.372Z,47.41
2023-03-18T21:21:38.389Z,47.50
2023-03-18T21:26:41.068Z,47.35
2023-03-18T21:31:43.677Z,47.76
2023-03-18T21:36:47.097Z,48.03
2023-03-18T21:41:48.796Z,48.01
2023-03-18T21:46:51.844Z,48.11
2023-03-18T21:51:53.646Z,48.75
2023-03-18T21:56:55.545Z,48.86
2023-03-18T22:01:57.328Z,48.88
2023-03-18T22:06:59.294Z,48.86
2023-03-18T22:12:25.972Z,48.58
2023-03-18T22:17:30.908Z,48.80
2023-03-18T22:22:37.008Z,48.57
2023-03-18T22:27:38.924Z,48.74
2023-03-18T22:32:45.809Z,48.47
2023-03-18T22:37:48.619Z,48.34
2023-03-18T22:42:53.463Z,48.28
2023-03-18T22:48:18.657Z,48.55
2023-03-18T22:53:43.060Z,48.78
2023-03-18T22:58:45.528Z,47.97
2023-03-18T23:03:47.792Z,47.92
2023-03-18T23:08:49.650Z,47.63
2023-03-18T23:13:52.270Z,47.12
2023-03-18T23:18:54.559Z,46.96
2023-03-18T23:23:56.971Z,47.36
2023-03-18T23:28:58.681Z,47.30
2023-03-18T23:34:00.397Z,47.15
2023-03-18T23:39:02.106Z,47.46
2023-03-18T23:44:03.759Z,47.38
2023-03-18T23:49:05.728Z,47.21
2023-03-18T23:54:08.316Z,47.25
2023-03-18T23:59:10.432Z,47.38
